createdAt,value
2022-12-16T00:02:01.602Z,99588.56
2022-12-16T00:04:30.444Z,99590.41
2022-12-16T00:06:58.553Z,99600.09
2022-12-16T00:09:26.944Z,99603.28
2022-12-16T00:11:56.354Z,99599.75
2022-12-16T00:14:27.401Z,99600.13
2022-12-16T00:16:56.146Z,99604.31
2022-12-16T00:19:25.019Z,99605.91
2022-12-16T00:21:53.724Z,99599.94
2022-12-16T00:24:22.838Z,99611.03
2022-12-16T00:26:53.345Z,99624.25
2022-12-16T00:29:22.170Z,99619.25
2022-12-16T00:31:52.240Z,99621.97
2022-12-16T00:34:21.602Z,99615.44
2022-12-16T00:36:50.595Z,99620.69
2022-12-16T00:39:22.740Z,99621.22
2022-12-16T00:41:51.191Z,99620.69
2022-12-16T00:44:20.512Z,99623.47
2022-12-16T00:46:49.187Z,99631.88
2022-12-16T00:49:18.978Z,99628.03
2022-12-16T00:51:49.544Z,99630.06
2022-12-16T00:54:18.631Z,99634.00
2022-12-16T00:56:46.912Z,99634.00
2022-12-16T00:59:15.390Z,99638.72
2022-12-16T01:01:43.881Z,99644.84
2022-12-16T01:04:12.281Z,99642.16
2022-12-16T01:06:41.918Z,99647.31
2022-12-16T01:09:09.931Z,99650.63
2022-12-16T01:11:38.145Z,99657.47
2022-12-16T01:14:06.452Z,99653.34
2022-12-16T01:16:36.051Z,99656.25
2022-12-16T01:19:04.768Z,99667.34
2022-12-16T01:21:33.841Z,99668.66
2022-12-16T01:24:04.018Z,99668.91
2022-12-16T01:26:33.360Z,99683.78
2022-12-16T01:29:01.525Z,99678.72
2022-12-16T01:31:30.741Z,99675.75
2022-12-16T01:33:59.871Z,99673.69
2022-12-16T01:36:28.794Z,99679.25
2022-12-16T01:38:58.389Z,99681.84
2022-12-16T01:41:27.670Z,99680.06
2022-12-16T01:44:14.815Z,99682.06
2022-12-16T01:46:46.542Z,99678.97
2022-12-16T01:49:23.178Z,99670.28
2022-12-16T01:51:59.473Z,99676.00
2022-12-16T01:54:32.145Z,99669.19
2022-12-16T01:57:05.276Z,99664.84
2022-12-16T01:59:37.178Z,99667.13
2022-12-16T02:02:06.315Z,99667.19
2022-12-16T02:04:35.050Z,99668.69
2022-12-16T02:07:03.745Z,99667.09
2022-12-16T02:09:32.095Z,99667.75
2022-12-16T02:12:19.185Z,99668.50
2022-12-16T02:15:04.836Z,99664.63
2022-12-16T02:17:43.079Z,99666.41
2022-12-16T02:20:43.110Z,99671.91
2022-12-16T02:23:33.803Z,99661.25
2022-12-16T02:26:47.474Z,99665.81
2022-12-16T02:29:41.093Z,99663.91
2022-12-16T02:32:15.963Z,99672.88
2022-12-16T02:34:50.993Z,99662.25
2022-12-16T02:37:30.875Z,99661.75
2022-12-16T02:40:02.357Z,99667.25
2022-12-16T02:42:37.088Z,99672.69
2022-12-16T02:45:12.442Z,99668.09
2022-12-16T02:47:42.122Z,99673.44
2022-12-16T02:50:19.117Z,99664.38
2022-12-16T02:52:47.796Z,99671.97
2022-12-16T02:55:17.872Z,99672.50
2022-12-16T02:57:59.026Z,99675.97
2022-12-16T03:00:35.317Z,99680.78
2022-12-16T03:03:11.292Z,99676.63
2022-12-16T03:05:43.180Z,99687.03
2022-12-16T03:08:15.859Z,99683.16
2022-12-16T03:10:47.207Z,99681.25
2022-12-16T03:13:35.114Z,99682.19
2022-12-16T03:16:07.197Z,99681.47
2022-12-16T03:18:41.492Z,99682.41
2022-12-16T03:21:11.433Z,99688.56
2022-12-16T03:23:45.586Z,99680.63
2022-12-16T03:26:20.248Z,99697.84
2022-12-16T03:28:55.222Z,99689.31
2022-12-16T03:31:33.053Z,99695.63
2022-12-16T03:34:11.422Z,99696.66
2022-12-16T03:36:42.651Z,99700.53
2022-12-16T03:39:12.587Z,99701.75
2022-12-16T03:41:41.094Z,99709.88
2022-12-16T03:44:10.407Z,99700.13
2022-12-16T03:46:38.867Z,99696.38
2022-12-16T03:49:08.559Z,99708.47
2022-12-16T03:51:37.099Z,99710.44
2022-12-16T03:54:05.598Z,99716.13
2022-12-16T03:56:33.787Z,99713.44
2022-12-16T03:59:01.981Z,99710.47
2022-12-16T04:01:30.461Z,99720.03
2022-12-16T04:03:58.774Z,99726.91
2022-12-16T04:06:28.590Z,99727.22
2022-12-16T04:08:56.996Z,99736.19
2022-12-16T04:11:42.981Z,99733.78
2022-12-16T04:14:28.851Z,99742.03
2022-12-16T04:17:15.945Z,99738.59
2022-12-16T04:20:04.977Z,99744.25
2022-12-16T04:22:54.425Z,99745.91
2022-12-16T04:25:23.744Z,99757.72
2022-12-16T04:27:51.924Z,99753.09
2022-12-16T04:30:22.264Z,99763.44
2022-12-16T04:33:09.250Z,99759.38
2022-12-16T04:35:56.663Z,99769.28
2022-12-16T04:38:44.141Z,99766.88
2022-12-16T04:41:30.235Z,99773.31
2022-12-16T04:44:16.009Z,99776.44
2022-12-16T04:47:01.826Z,99782.44
2022-12-16T04:50:02.727Z,99782.44
2022-12-16T04:52:48.908Z,99783.78
2022-12-16T04:55:36.056Z,99783.31
2022-12-16T04:58:22.783Z,99794.19
2022-12-16T05:01:05.109Z,99791.19
2022-12-16T05:03:51.766Z,99800.00
2022-12-16T05:06:53.592Z,99798.38
2022-12-16T05:39:42.518Z,99851.97
2022-12-16T05:42:29.650Z,99857.47
2022-12-16T05:45:15.213Z,99864.53
2022-12-16T05:48:01.524Z,99864.94
2022-12-16T05:50:47.187Z,99871.94
2022-12-16T05:53:33.842Z,99868.63
2022-12-16T05:56:20.092Z,99882.38
2022-12-16T05:59:09.119Z,99881.69
2022-12-16T06:01:55.049Z,99886.09
2022-12-16T06:04:41.134Z,99890.50
2022-12-16T06:07:27.332Z,99901.81
2022-12-16T06:10:13.277Z,99897.84
2022-12-16T06:12:58.985Z,99895.22
2022-12-16T06:15:46.563Z,99897.59
2022-12-16T06:18:32.447Z,99903.97
2022-12-16T06:21:18.410Z,99902.09
2022-12-16T06:24:04.439Z,99917.56
2022-12-16T06:26:50.089Z,99919.59
2022-12-16T06:29:35.805Z,99925.84
2022-12-16T06:32:23.086Z,99939.97
2022-12-16T06:35:09.614Z,99932.44
2022-12-16T06:38:10.093Z,99934.38
2022-12-16T06:40:55.927Z,99935.66
2022-12-16T06:43:43.856Z,99944.25
2022-12-16T06:46:30.074Z,99957.16
2022-12-16T06:49:26.860Z,99958.25
2022-12-16T06:52:13.055Z,99968.34
2022-12-16T06:54:59.043Z,99962.44
2022-12-16T06:57:53.510Z,99974.13
2022-12-16T07:00:39.574Z,99979.09
2022-12-16T07:03:25.325Z,99973.94
2022-12-16T07:06:13.845Z,99973.47
2022-12-16T07:08:59.451Z,99979.09
2022-12-16T07:11:46.679Z,99985.28
2022-12-16T07:14:32.564Z,99987.69
2022-12-16T07:17:18.326Z,100004.19
2022-12-16T07:20:04.490Z,100010.00
2022-12-16T07:23:00.970Z,100011.50
2022-12-16T07:25:48.539Z,100015.34
2022-12-16T07:28:34.861Z,100023.75
2022-12-16T07:31:20.570Z,100027.28
2022-12-16T07:34:06.854Z,100020.53
2022-12-16T07:36:53.032Z,100037.16
2022-12-16T07:39:40.231Z,100040.50
2022-12-16T07:42:26.140Z,100045.88
2022-12-16T07:45:08.538Z,100048.44
2022-12-16T07:47:55.357Z,100058.31
2022-12-16T07:50:41.217Z,100067.78
2022-12-16T07:53:31.260Z,100073.41
2022-12-16T07:56:21.609Z,100066.31
2022-12-16T07:59:07.356Z,100080.19
2022-12-16T08:01:53.474Z,100070.31
2022-12-16T08:04:46.809Z,100075.13
2022-12-16T08:07:32.711Z,100083.81
2022-12-16T08:10:18.859Z,100090.25
2022-12-16T08:13:04.992Z,100088.66
2022-12-16T08:15:51.241Z,100095.88
2022-12-16T08:18:37.368Z,100095.66
2022-12-16T08:21:23.078Z,100096.78
2022-12-16T08:24:08.699Z,100106.16
2022-12-16T08:26:54.536Z,100116.66
2022-12-16T08:29:44.565Z,100107.13
2022-12-16T08:32:32.555Z,100121.63
2022-12-16T08:35:18.722Z,100121.09
2022-12-16T08:38:08.984Z,100128.13
2022-12-16T08:41:00.193Z,100132.19
2022-12-16T08:43:45.918Z,100134.88
2022-12-16T08:46:33.219Z,100130.75
2022-12-16T08:49:19.216Z,100136.03
2022-12-16T08:52:06.293Z,100141.81
2022-12-16T08:54:51.846Z,100145.91
2022-12-16T08:57:37.539Z,100157.47
2022-12-16T09:00:24.866Z,100159.31
2022-12-16T09:03:14.264Z,100153.63
2022-12-16T09:05:59.869Z,100166.97
2022-12-16T09:08:46.511Z,100168.22
2022-12-16T09:11:33.106Z,100168.34
2022-12-16T09:14:15.143Z,100175.69
2022-12-16T09:17:01.313Z,100183.06
2022-12-16T09:19:48.585Z,100183.94
2022-12-16T09:22:34.290Z,100184.50
2022-12-16T09:25:20.203Z,100190.50
2022-12-16T09:28:08.859Z,100193.50
2022-12-16T09:30:55.506Z,100198.13
2022-12-16T09:33:41.605Z,100192.09
2022-12-16T09:36:29.306Z,100188.75
2022-12-16T09:39:15.257Z,100192.00
2022-12-16T09:42:02.421Z,100198.31
2022-12-16T09:45:25.994Z,100209.72
2022-12-16T09:48:19.656Z,100207.06
2022-12-16T09:51:06.068Z,100203.59
2022-12-16T09:53:57.166Z,100209.94
2022-12-16T09:56:48.548Z,100206.97
2022-12-16T09:59:40.112Z,100207.53
2022-12-16T10:02:31.138Z,100211.53
2022-12-16T10:05:19.619Z,100217.09
2022-12-16T10:08:13.094Z,100204.94
2022-12-16T10:11:14.815Z,100209.91
2022-12-16T10:14:06.386Z,100213.19
2022-12-16T10:16:59.549Z,100215.13
2022-12-16T10:19:53.471Z,100213.75
2022-12-16T10:22:47.714Z,100212.94
2022-12-16T10:25:39.627Z,100214.09
2022-12-16T10:28:35.315Z,100217.28
2022-12-16T10:31:26.726Z,100215.72
2022-12-16T10:34:15.422Z,100218.72
2022-12-16T10:37:03.787Z,100204.59
2022-12-16T10:40:05.458Z,100215.81
2022-12-16T10:42:58.773Z,100213.78
2022-12-16T10:45:49.051Z,100210.22
2022-12-16T10:48:47.804Z,100212.84
2022-12-16T10:51:39.430Z,100215.00
2022-12-16T10:54:44.413Z,100222.47
2022-12-16T10:57:38.136Z,100228.16
2022-12-16T11:00:43.035Z,100227.09
2022-12-16T11:03:41.941Z,100229.63
2022-12-16T11:06:29.736Z,100226.16
2022-12-16T11:09:34.096Z,100231.06
2022-12-16T11:12:39.307Z,100223.22
2022-12-16T11:15:45.562Z,100226.09
2022-12-16T11:18:33.801Z,100226.84
2022-12-16T11:21:29.909Z,100229.22
2022-12-16T11:24:31.551Z,100225.34
2022-12-16T11:27:19.897Z,100237.78
2022-12-16T11:30:13.909Z,100236.44
2022-12-16T11:33:05.497Z,100235.47
2022-12-16T11:35:56.475Z,100239.41
2022-12-16T11:38:46.933Z,100237.16
2022-12-16T11:41:45.049Z,100239.59
2022-12-16T11:44:37.290Z,100241.28
2022-12-16T11:47:37.085Z,100242.06
2022-12-16T11:50:27.042Z,100240.91
2022-12-16T11:53:14.944Z,100246.34
2022-12-16T11:56:11.150Z,100244.16
2022-12-16T11:59:04.588Z,100251.91
2022-12-16T12:01:55.376Z,100256.13
2022-12-16T12:04:41.166Z,100256.16
2022-12-16T12:07:45.731Z,100265.75
2022-12-16T12:10:56.687Z,100264.56
2022-12-16T12:14:01.919Z,100263.78
2022-12-16T12:17:02.402Z,100262.91
2022-12-16T12:20:02.255Z,100266.13
2022-12-16T12:22:54.637Z,100272.78
2022-12-16T12:25:46.736Z,100283.50
2022-12-16T12:28:46.107Z,100275.16
2022-12-16T12:31:45.545Z,100279.44
2022-12-16T12:34:36.968Z,100282.00
2022-12-16T12:37:28.843Z,100283.09
2022-12-16T12:40:31.350Z,100286.69
2022-12-16T12:43:42.612Z,100293.94
2022-12-16T12:46:42.490Z,100298.56
2022-12-16T12:49:38.458Z,100296.66
2022-12-16T12:52:39.441Z,100308.88
2022-12-16T12:55:34.318Z,100310.25
2022-12-16T12:58:21.143Z,100311.81
2022-12-16T13:01:11.701Z,100313.22
2022-12-16T13:04:07.162Z,100319.94
2022-12-16T13:06:55.545Z,100321.94
2022-12-16T13:09:49.463Z,100322.69
2022-12-16T13:12:47.333Z,100328.13
2022-12-16T13:15:54.594Z,100328.41
2022-12-16T13:18:43.303Z,100330.78
2022-12-16T13:22:07.395Z,100333.25
2022-12-16T13:25:03.790Z,100332.34
2022-12-16T13:28:07.401Z,100336.94
2022-12-16T13:30:53.581Z,100345.88
2022-12-16T13:33:43.011Z,100338.78
2022-12-16T13:36:30.445Z,100347.22
2022-12-16T13:39:39.407Z,100349.50
2022-12-16T13:42:27.373Z,100356.59
2022-12-16T13:45:17.901Z,100363.72
2022-12-16T13:48:25.047Z,100361.59
2022-12-16T13:51:18.830Z,100360.00
2022-12-16T13:54:10.755Z,100369.00
2022-12-16T13:57:01.266Z,100368.91
2022-12-16T13:59:49.854Z,100377.84
2022-12-16T14:02:46.364Z,100382.56
2022-12-16T14:05:43.928Z,100376.59
2022-12-16T14:08:34.374Z,100385.97
2022-12-16T14:11:19.790Z,100387.59
2022-12-16T14:14:16.342Z,100398.66
2022-12-16T14:17:09.571Z,100396.09
2022-12-16T14:20:08.475Z,100396.03
2022-12-16T14:23:10.609Z,100402.34
2022-12-16T14:25:59.309Z,100404.00
2022-12-16T14:28:48.602Z,100410.13
2022-12-16T14:31:45.326Z,100412.78
2022-12-16T14:34:50.737Z,100419.13
2022-12-16T14:37:50.387Z,100420.38
2022-12-16T14:40:40.799Z,100420.94
2022-12-16T14:43:32.291Z,100430.25
2022-12-16T14:46:18.679Z,100434.44
2022-12-16T14:49:08.387Z,100436.03
2022-12-16T14:51:55.097Z,100432.94
2022-12-16T14:54:50.046Z,100445.97
2022-12-16T14:57:37.347Z,100453.84
2022-12-16T15:00:35.100Z,100462.13
2022-12-16T15:03:26.424Z,100467.25
2022-12-16T15:06:17.130Z,100467.72
2022-12-16T15:09:08.645Z,100477.25
2022-12-16T15:11:57.095Z,100477.13
2022-12-16T15:14:47.423Z,100483.25
2022-12-16T15:17:39.670Z,100476.38
2022-12-16T15:20:35.753Z,100488.16
2022-12-16T15:23:29.271Z,100491.09
2022-12-16T15:26:17.132Z,100487.09
2022-12-16T15:29:03.507Z,100496.50
2022-12-16T15:31:51.257Z,100509.78
2022-12-16T15:34:58.017Z,100504.13
2022-12-16T15:37:50.078Z,100504.78
2022-12-16T15:40:48.487Z,100523.63
2022-12-16T15:43:44.654Z,100520.00
2022-12-16T15:46:40.419Z,100524.06
2022-12-16T15:49:47.183Z,100523.22
2022-12-16T15:52:51.919Z,100531.19
2022-12-16T15:55:49.489Z,100528.97
2022-12-16T15:58:41.340Z,100547.44
2022-12-16T16:01:28.108Z,100543.97
2022-12-16T16:04:29.803Z,100549.72
2022-12-16T16:07:16.048Z,100547.00
2022-12-16T16:10:01.898Z,100546.69
2022-12-16T16:12:51.315Z,100558.09
2022-12-16T16:15:37.556Z,100559.28
2022-12-16T16:18:25.004Z,100569.78
2022-12-16T16:21:11.344Z,100565.59
2022-12-16T16:23:57.632Z,100568.16
2022-12-16T16:26:46.586Z,100569.50
2022-12-16T16:29:34.342Z,100573.28
2022-12-16T16:32:21.125Z,100569.50
2022-12-16T16:35:18.677Z,100572.72
2022-12-16T16:38:04.957Z,100575.56
2022-12-16T16:40:54.410Z,100580.16
2022-12-16T16:43:40.284Z,100583.88
2022-12-16T16:46:45.534Z,100590.28
2022-12-16T16:49:39.288Z,100594.91
2022-12-16T16:52:30.380Z,100596.56
2022-12-16T16:55:16.628Z,100603.44
2022-12-16T16:58:02.919Z,100614.19
2022-12-16T17:00:48.920Z,100612.63
2022-12-16T17:03:36.936Z,100613.63
2022-12-16T17:06:24.361Z,100623.56
2022-12-16T17:09:10.314Z,100626.59
2022-12-16T17:11:56.917Z,100634.13
2022-12-16T17:14:42.945Z,100642.78
2022-12-16T17:17:29.264Z,100640.41
2022-12-16T17:20:13.014Z,100648.44
2022-12-16T17:23:02.103Z,100640.19
2022-12-16T17:25:48.005Z,100639.88
2022-12-16T17:28:34.386Z,100653.06
2022-12-16T17:31:20.114Z,100663.94
2022-12-16T17:34:05.699Z,100657.13
2022-12-16T17:36:53.009Z,100657.28
2022-12-16T17:39:39.189Z,100657.34
2022-12-16T17:42:25.014Z,100656.88
2022-12-16T17:45:10.919Z,100666.41
2022-12-16T17:47:57.757Z,100673.56
2022-12-16T17:50:45.284Z,100674.97
2022-12-16T17:53:32.979Z,100683.28
2022-12-16T17:56:22.520Z,100678.44
2022-12-16T17:59:10.945Z,100678.97
2022-12-16T18:01:57.742Z,100682.13
2022-12-16T18:04:43.502Z,100687.22
2022-12-16T18:07:29.355Z,100693.25
2022-12-16T18:10:16.336Z,100694.13
2022-12-16T18:13:03.982Z,100699.28
2022-12-16T18:15:52.338Z,100701.03
2022-12-16T18:18:42.953Z,100707.06
2022-12-16T18:21:34.114Z,100708.81
2022-12-16T18:24:24.250Z,100711.16
2022-12-16T18:27:11.586Z,100719.28
2022-12-16T18:29:58.203Z,100715.25
2022-12-16T18:32:43.888Z,100718.63
2022-12-16T18:35:29.762Z,100716.53
2022-12-16T18:38:16.686Z,100724.88
2022-12-16T18:41:02.894Z,100727.31
2022-12-16T18:43:52.067Z,100735.13
2022-12-16T18:46:38.538Z,100744.09
2022-12-16T18:49:24.730Z,100746.34
2022-12-16T18:52:10.782Z,100749.25
2022-12-16T18:54:57.049Z,100749.44
2022-12-16T18:57:42.333Z,100758.41
2022-12-16T19:00:30.811Z,100754.53
2022-12-16T19:03:16.837Z,100762.63
2022-12-16T19:06:02.816Z,100766.47
2022-12-16T19:08:49.392Z,100769.03
2022-12-16T19:11:36.201Z,100772.06
2022-12-16T19:14:27.816Z,100780.47
2022-12-16T19:17:14.924Z,100785.28
2022-12-16T19:20:03.096Z,100784.63
2022-12-16T19:23:03.958Z,100790.19
2022-12-16T19:25:50.053Z,100796.59
2022-12-16T19:28:35.903Z,100792.56
2022-12-16T19:31:22.587Z,100801.16
2022-12-16T19:34:24.734Z,100807.31
2022-12-16T19:37:10.932Z,100805.72
2022-12-16T19:39:57.148Z,100813.13
2022-12-16T19:42:43.113Z,100813.31
2022-12-16T19:45:29.242Z,100822.59
2022-12-16T19:48:19.497Z,100813.97
2022-12-16T19:51:06.745Z,100816.75
2022-12-16T19:53:52.555Z,100816.69
2022-12-16T19:56:41.967Z,100826.09
2022-12-16T19:59:28.275Z,100823.59
2022-12-16T20:02:14.654Z,100834.56
2022-12-16T20:05:00.676Z,100834.56
2022-12-16T20:07:48.570Z,100839.09
2022-12-16T20:10:34.729Z,100849.59
2022-12-16T20:16:32.556Z,100846.41
2022-12-16T20:19:19.648Z,100856.06
2022-12-16T20:22:07.469Z,100863.31
2022-12-16T20:24:56.339Z,100866.34
2022-12-16T20:27:42.916Z,100865.94
2022-12-16T20:30:31.687Z,100867.22
2022-12-16T20:33:17.544Z,100871.16
2022-12-16T20:36:14.356Z,100873.00
2022-12-16T20:39:00.375Z,100882.69
2022-12-16T20:41:47.433Z,100886.22
2022-12-16T20:44:33.263Z,100885.31
2022-12-16T20:47:21.528Z,100894.69
2022-12-16T20:50:10.303Z,100894.25
2022-12-16T20:52:56.536Z,100899.72
2022-12-16T20:55:42.195Z,100904.88
2022-12-16T20:58:43.870Z,100904.25
2022-12-16T21:01:29.856Z,100918.41
2022-12-16T21:04:15.519Z,100913.78
2022-12-16T21:07:02.177Z,100923.88
2022-12-16T21:09:47.846Z,100923.44
2022-12-16T21:12:33.905Z,100923.94
2022-12-16T21:15:21.157Z,100927.72
2022-12-16T21:18:07.376Z,100929.41
2022-12-16T21:20:56.194Z,100938.63
2022-12-16T21:23:42.656Z,100940.03
2022-12-16T21:26:28.696Z,100949.38
2022-12-16T21:29:14.905Z,100957.13
2022-12-16T21:32:02.418Z,100954.28
2022-12-16T21:34:48.213Z,100954.72
2022-12-16T21:37:34.955Z,100955.69
2022-12-16T21:40:20.975Z,100959.47
2022-12-16T21:43:06.488Z,100967.88
2022-12-16T21:45:52.818Z,100975.19
2022-12-16T21:48:43.870Z,100976.38
2022-12-16T21:51:30.161Z,100985.34
2022-12-16T21:54:12.172Z,100982.84
2022-12-16T21:56:58.552Z,100989.81
2022-12-16T21:59:45.715Z,100987.31
2022-12-16T22:02:32.722Z,100997.03
2022-12-16T22:05:19.745Z,101002.81
2022-12-16T22:08:05.882Z,101001.03
2022-12-16T22:10:52.992Z,100999.22
2022-12-16T22:13:47.366Z,101006.91
2022-12-16T22:16:33.454Z,101016.16
2022-12-16T22:19:19.247Z,101015.06
2022-12-16T22:22:07.084Z,101027.69
2022-12-16T22:24:53.448Z,101025.81
2022-12-16T22:27:39.662Z,101028.53
2022-12-16T22:30:27.711Z,101034.44
2022-12-16T22:33:14.495Z,101045.66
2022-12-16T22:36:00.526Z,101045.97
2022-12-16T22:38:52.023Z,101044.41
2022-12-16T22:41:37.877Z,101051.34
2022-12-16T22:44:26.713Z,101050.25
2022-12-16T22:47:12.452Z,101049.94
2022-12-16T22:49:58.200Z,101064.69
2022-12-16T22:52:45.628Z,101073.13
2022-12-16T22:55:33.524Z,101081.66
2022-12-16T22:58:25.364Z,101076.69
2022-12-16T23:01:11.178Z,101068.56
2022-12-16T23:03:57.352Z,101078.22
2022-12-16T23:06:43.204Z,101075.91
2022-12-16T23:09:29.365Z,101084.78
2022-12-16T23:12:16.822Z,101090.97
2022-12-16T23:15:14.141Z,101089.44
2022-12-16T23:18:00.595Z,101093.75
2022-12-16T23:20:46.474Z,101097.25
2022-12-16T23:23:32.335Z,101102.25
2022-12-16T23:26:21.403Z,101098.03
2022-12-16T23:29:12.344Z,101095.81
2022-12-16T23:31:58.155Z,101096.91
2022-12-16T23:34:46.228Z,101100.34
2022-12-16T23:37:33.073Z,101093.13
2022-12-16T23:40:19.515Z,101101.91
2022-12-16T23:43:06.026Z,101110.41
2022-12-16T23:45:53.400Z,101109.22
2022-12-16T23:48:43.312Z,101109.66
2022-12-16T23:51:29.889Z,101106.97
2022-12-16T23:54:15.345Z,101121.16
2022-12-16T23:57:01.439Z,101114.25
2022-12-16T23:59:47.231Z,101110.00
